Time;durP1;ratioP1;P1;durP2;ratioP2;P2;SDS_P1;SDS_P2;PMS_P1;PMS_P2;Temp;Humidity;BMP_temperature;BMP_pressure;BME280_temperature;BME280_humidity;BME280_pressure;Samples;Min_cycle;Max_cycle;Signal;HPM_P1;HPM_P2
2024/03/07 00:00:17;;;;;;;51.67;20.55;;;;;;;;;;5056175;28;20088;-79
2024/03/07 00:02:44;;;;;;;49.58;21.67;;;;;;;;;;5066106;28;20021;-73
2024/03/07 00:05:12;;;;;;;59.58;24.27;;;;;;;;;;5055705;28;20025;-74
2024/03/07 00:07:39;;;;;;;55.72;24.58;;;;;;;;;;5053653;28;20494;-80
2024/03/07 00:10:07;;;;;;;49.00;22.60;;;;;;;;;;5055805;28;20024;-80
2024/03/07 00:12:36;;;;;;;53.72;23.70;;;;;;;;;;5068504;28;20025;-73
2024/03/07 00:15:06;;;;;;;49.30;22.02;;;;;;;;;;5065520;28;20037;-74
2024/03/07 00:17:32;;;;;;;50.25;23.25;;;;;;;;;;5067511;28;20037;-73
2024/03/07 00:19:58;;;;;;;53.08;22.38;;;;;;;;;;5065579;28;20017;-73
2024/03/07 00:22:26;;;;;;;51.55;25.00;;;;;;;;;;5062364;28;20037;-80
2024/03/07 00:24:53;;;;;;;54.10;24.27;;;;;;;;;;5051843;28;20067;-74
2024/03/07 00:27:20;;;;;;;52.63;23.90;;;;;;;;;;5052268;28;20028;-74
2024/03/07 00:29:52;;;;;;;59.00;26.40;;;;;;;;;;5063173;28;20031;-74
2024/03/07 00:32:19;;;;;;;52.40;23.48;;;;;;;;;;5061065;28;20036;-80
2024/03/07 00:34:45;;;;;;;60.47;27.80;;;;;;;;;;5058006;28;20474;-80
2024/03/07 00:37:11;;;;;;;53.58;24.75;;;;;;;;;;5054534;28;20086;-74
2024/03/07 00:39:37;;;;;;;55.10;24.88;;;;;;;;;;5066145;28;20033;-73
2024/03/07 00:42:03;;;;;;;46.65;19.67;;;;;;;;;;5054376;28;20463;-74
2024/03/07 00:44:29;;;;;;;58.97;24.98;;;;;;;;;;5055544;28;20139;-73
2024/03/07 00:46:56;;;;;;;54.50;25.30;;;;;;;;;;5052835;28;20017;-73
2024/03/07 00:49:22;;;;;;;59.88;28.35;;;;;;;;;;5068348;28;20043;-80
2024/03/07 00:51:49;;;;;;;57.88;26.50;;;;;;;;;;5062343;28;20021;-80
2024/03/07 00:54:16;;;;;;;59.85;27.05;;;;;;;;;;5062287;28;20047;-73
2024/03/07 00:56:42;;;;;;;66.57;26.73;;;;;;;;;;5054972;28;20017;-74
2024/03/07 00:59:08;;;;;;;62.75;27.77;;;;;;;;;;5055106;28;20049;-73
2024/03/07 01:01:36;;;;;;;59.78;28.92;;;;;;;;;;5054774;28;20014;-80
2024/03/07 01:04:02;;;;;;;56.97;26.02;;;;;;;;;;5061808;28;20025;-80
2024/03/07 01:06:29;;;;;;;56.88;24.92;;;;;;;;;;5061770;28;20434;-80
2024/03/07 01:08:55;;;;;;;52.85;25.17;;;;;;;;;;5059811;28;20033;-80
2024/03/07 01:11:21;;;;;;;58.60;25.00;;;;;;;;;;5042628;28;20501;-81
2024/03/07 01:13:47;;;;;;;54.63;25.52;;;;;;;;;;5058679;28;20040;-74
2024/03/07 01:16:13;;;;;;;66.95;27.63;;;;;;;;;;5051440;28;20021;-74
2024/03/07 01:18:39;;;;;;;64.50;25.92;;;;;;;;;;5062214;28;20013;-74
2024/03/07 01:21:06;;;;;;;61.05;27.50;;;;;;;;;;5057212;28;20025;-73
2024/03/07 01:23:32;;;;;;;62.58;26.27;;;;;;;;;;5062009;28;20016;-74
2024/03/07 01:25:59;;;;;;;44.35;22.27;;;;;;;;;;5058304;28;20023;-80
2024/03/07 01:28:25;;;;;;;51.28;24.73;;;;;;;;;;5071083;28;20039;-74
2024/03/07 01:30:52;;;;;;;54.38;25.33;;;;;;;;;;5052863;28;20025;-74
2024/03/07 01:33:19;;;;;;;55.30;27.15;;;;;;;;;;5050299;28;20036;-74
2024/03/07 01:35:45;;;;;;;54.55;25.58;;;;;;;;;;5057786;28;20021;-73
2024/03/07 01:38:13;;;;;;;59.72;25.58;;;;;;;;;;5055010;28;20017;-80
2024/03/07 01:40:40;;;;;;;58.38;26.42;;;;;;;;;;5053682;28;20021;-80
2024/03/07 01:43:07;;;;;;;66.30;29.48;;;;;;;;;;5050537;28;20049;-80
2024/03/07 01:45:33;;;;;;;56.40;22.45;;;;;;;;;;5066196;28;20047;-80
2024/03/07 01:47:59;;;;;;;56.65;26.63;;;;;;;;;;5069530;28;20064;-80
2024/03/07 01:50:26;;;;;;;61.13;25.15;;;;;;;;;;5065558;28;20513;-74
2024/03/07 01:52:55;;;;;;;59.53;27.95;;;;;;;;;;5060625;28;20091;-73
2024/03/07 01:55:22;;;;;;;61.55;27.48;;;;;;;;;;5065222;28;20021;-80
2024/03/07 01:57:48;;;;;;;61.78;28.20;;;;;;;;;;5069859;28;20109;-80
2024/03/07 02:00:14;;;;;;;60.95;26.33;;;;;;;;;;5063859;28;20025;-80
2024/03/07 02:02:40;;;;;;;51.13;22.30;;;;;;;;;;5057834;28;20025;-80
2024/03/07 02:05:07;;;;;;;62.83;28.08;;;;;;;;;;5072610;28;20037;-80
2024/03/07 02:07:33;;;;;;;55.28;25.13;;;;;;;;;;5073495;28;20031;-80
2024/03/07 02:10:06;;;;;;;61.72;28.58;;;;;;;;;;5071369;28;20017;-81
2024/03/07 02:12:33;;;;;;;63.45;28.52;;;;;;;;;;5068766;28;20028;-80
2024/03/07 02:14:59;;;;;;;61.05;28.27;;;;;;;;;;5067989;28;20024;-74
2024/03/07 02:17:29;;;;;;;67.40;29.30;;;;;;;;;;5060804;28;20035;-74
2024/03/07 02:19:55;;;;;;;55.08;24.48;;;;;;;;;;5058065;28;20371;-73
2024/03/07 02:22:21;;;;;;;60.92;27.25;;;;;;;;;;5061443;28;20043;-80
2024/03/07 02:24:47;;;;;;;64.97;26.45;;;;;;;;;;5057671;28;20536;-74
2024/03/07 02:27:17;;;;;;;58.63;24.52;;;;;;;;;;5068555;28;20025;-74
2024/03/07 02:29:43;;;;;;;58.35;25.33;;;;;;;;;;5065672;28;20032;-80
2024/03/07 02:32:09;;;;;;;52.95;25.15;;;;;;;;;;5070599;28;20032;-74
2024/03/07 02:34:36;;;;;;;60.05;26.25;;;;;;;;;;5055278;28;20071;-74
2024/03/07 02:37:02;;;;;;;56.25;24.60;;;;;;;;;;5063661;28;20025;-80
2024/03/07 02:39:28;;;;;;;54.85;23.30;;;;;;;;;;5056482;28;20029;-80
2024/03/07 02:41:54;;;;;;;46.55;23.38;;;;;;;;;;5058302;28;20017;-81
2024/03/07 02:44:20;;;;;;;53.13;23.08;;;;;;;;;;5057762;28;20522;-80
2024/03/07 02:46:46;;;;;;;53.97;24.83;;;;;;;;;;5059335;28;20021;-74
2024/03/07 02:49:14;;;;;;;65.20;25.05;;;;;;;;;;5065488;28;20098;-74
2024/03/07 02:51:41;;;;;;;55.00;25.48;;;;;;;;;;5072525;28;20099;-74
2024/03/07 02:54:08;;;;;;;52.95;23.52;;;;;;;;;;5073334;28;20048;-74
2024/03/07 02:56:35;;;;;;;60.00;25.08;;;;;;;;;;5068306;28;20047;-81
2024/03/07 02:59:01;;;;;;;49.53;23.80;;;;;;;;;;5062670;28;20470;-74
2024/03/07 03:01:27;;;;;;;47.55;24.10;;;;;;;;;;5061516;28;20033;-80
2024/03/07 03:03:53;;;;;;;54.97;23.17;;;;;;;;;;5062460;28;20019;-73
2024/03/07 03:06:22;;;;;;;47.25;22.67;;;;;;;;;;5060503;28;20028;-79
2024/03/07 03:08:48;;;;;;;51.90;23.70;;;;;;;;;;5063924;28;20033;-74
2024/03/07 03:11:14;;;;;;;47.33;23.73;;;;;;;;;;5060544;28;20017;-73
2024/03/07 03:13:43;;;;;;;49.63;20.60;;;;;;;;;;5055612;28;20031;-74
2024/03/07 03:16:10;;;;;;;47.70;22.23;;;;;;;;;;5055653;28;20027;-79
2024/03/07 03:18:36;;;;;;;46.28;22.52;;;;;;;;;;5070421;28;20066;-80
2024/03/07 03:21:02;;;;;;;40.45;16.92;;;;;;;;;;5065906;28;20025;-80
2024/03/07 03:23:31;;;;;;;44.75;19.23;;;;;;;;;;5070419;28;20037;-74
2024/03/07 03:25:57;;;;;;;41.40;18.98;;;;;;;;;;5044450;28;20048;-80
2024/03/07 03:28:24;;;;;;;37.83;18.52;;;;;;;;;;5056312;28;20489;-73
2024/03/07 03:30:51;;;;;;;40.60;20.88;;;;;;;;;;5057322;28;20021;-80
2024/03/07 03:33:17;;;;;;;42.83;20.65;;;;;;;;;;5058190;28;20021;-80
2024/03/07 03:35:44;;;;;;;29.58;13.52;;;;;;;;;;5054665;28;20020;-79
2024/03/07 03:38:10;;;;;;;36.03;18.52;;;;;;;;;;5053261;28;20021;-74
2024/03/07 03:40:36;;;;;;;43.33;20.20;;;;;;;;;;5054343;28;20434;-73
2024/03/07 03:43:02;;;;;;;44.78;22.02;;;;;;;;;;5052842;28;20402;-74
2024/03/07 03:45:29;;;;;;;42.85;21.48;;;;;;;;;;5054587;28;20024;-74
2024/03/07 03:47:55;;;;;;;43.38;19.88;;;;;;;;;;5054554;28;20028;-80
2024/03/07 03:50:24;;;;;;;36.58;18.85;;;;;;;;;;5055516;28;20095;-74
2024/03/07 03:52:50;;;;;;;43.53;21.30;;;;;;;;;;5057258;28;20051;-81
2024/03/07 03:55:16;;;;;;;41.88;22.13;;;;;;;;;;5056198;28;20021;-74
2024/03/07 03:57:43;;;;;;;46.85;21.15;;;;;;;;;;5073530;28;20028;-80
2024/03/07 04:00:13;;;;;;;44.42;20.83;;;;;;;;;;5073318;28;20453;-81
2024/03/07 04:02:43;;;;;;;46.70;20.73;;;;;;;;;;5065895;28;20507;-80
2024/03/07 04:05:10;;;;;;;40.75;23.58;;;;;;;;;;5065116;28;20031;-80
2024/03/07 04:07:37;;;;;;;46.33;21.98;;;;;;;;;;5054691;28;20032;-79
2024/03/07 04:10:03;;;;;;;39.58;21.63;;;;;;;;;;5066756;28;20020;-74
2024/03/07 04:12:29;;;;;;;41.45;21.67;;;;;;;;;;5054972;28;20057;-79
2024/03/07 04:14:55;;;;;;;49.22;21.85;;;;;;;;;;5059032;28;20043;-80
2024/03/07 04:17:21;;;;;;;45.42;18.08;;;;;;;;;;5055985;28;20107;-73
2024/03/07 04:19:48;;;;;;;41.25;20.73;;;;;;;;;;5057119;28;20095;-74
2024/03/07 04:22:14;;;;;;;51.75;21.90;;;;;;;;;;5067594;28;20119;-73
2024/03/07 04:24:40;;;;;;;40.20;21.15;;;;;;;;;;5063754;28;20502;-73
2024/03/07 04:27:07;;;;;;;38.45;18.10;;;;;;;;;;5059928;28;20446;-80
2024/03/07 04:29:33;;;;;;;38.13;18.35;;;;;;;;;;5057809;28;20064;-73
2024/03/07 04:32:01;;;;;;;33.78;16.75;;;;;;;;;;5054283;28;20025;-80
2024/03/07 04:34:27;;;;;;;43.95;20.15;;;;;;;;;;5059738;28;20064;-74
2024/03/07 04:36:54;;;;;;;44.67;21.38;;;;;;;;;;5058261;28;20021;-80
2024/03/07 04:39:35;;;;;;;51.53;22.52;;;;;;;;;;5055093;28;20040;-74
2024/03/07 04:42:03;;;;;;;40.20;20.88;;;;;;;;;;5053672;28;20107;-81
2024/03/07 04:44:30;;;;;;;46.03;20.88;;;;;;;;;;5050481;28;20055;-74
2024/03/07 04:46:56;;;;;;;42.28;15.88;;;;;;;;;;5054357;28;20382;-73
2024/03/07 04:49:23;;;;;;;46.47;21.35;;;;;;;;;;5053388;28;20060;-80
2024/03/07 04:51:50;;;;;;;46.30;21.17;;;;;;;;;;5060864;28;20017;-73
2024/03/07 04:54:16;;;;;;;45.28;19.98;;;;;;;;;;5060366;28;20027;-80
2024/03/07 04:56:42;;;;;;;39.22;19.70;;;;;;;;;;5057380;28;20024;-80
2024/03/07 04:59:10;;;;;;;51.75;22.85;;;;;;;;;;5071774;28;20021;-74
2024/03/07 05:01:36;;;;;;;50.47;22.30;;;;;;;;;;5066007;28;20023;-79
2024/03/07 05:04:03;;;;;;;49.97;21.98;;;;;;;;;;5054073;28;20407;-74
2024/03/07 05:06:29;;;;;;;48.47;21.30;;;;;;;;;;5065284;28;20020;-74
2024/03/07 05:08:55;;;;;;;55.80;23.90;;;;;;;;;;5052885;28;20122;-80
2024/03/07 05:11:21;;;;;;;51.75;24.42;;;;;;;;;;5054433;28;20053;-80
2024/03/07 05:13:48;;;;;;;42.03;18.90;;;;;;;;;;5051221;28;20040;-79
2024/03/07 05:16:14;;;;;;;48.53;23.63;;;;;;;;;;5061222;28;20029;-78
2024/03/07 05:18:43;;;;;;;48.72;22.48;;;;;;;;;;5063004;28;20029;-74
2024/03/07 05:23:54;;;;;;;61.53;24.52;;;;;;;;;;5056016;28;20027;-74
2024/03/07 05:26:20;;;;;;;51.28;21.38;;;;;;;;;;5051471;28;20079;-80
2024/03/07 05:28:46;;;;;;;50.67;22.40;;;;;;;;;;5055682;28;20440;-80
2024/03/07 05:31:12;;;;;;;47.70;22.27;;;;;;;;;;5057696;28;20787;-80
2024/03/07 05:33:40;;;;;;;49.85;23.55;;;;;;;;;;5060203;28;20047;-74
2024/03/07 05:36:15;;;;;;;53.03;22.40;;;;;;;;;;5053981;28;20017;-74
2024/03/07 05:38:45;;;;;;;53.03;21.63;;;;;;;;;;5047595;28;20042;-79
2024/03/07 05:41:14;;;;;;;49.92;22.73;;;;;;;;;;5055092;28;20028;-73
2024/03/07 05:43:41;;;;;;;47.47;22.00;;;;;;;;;;5058682;28;20048;-80
2024/03/07 05:46:09;;;;;;;48.22;22.92;;;;;;;;;;5052264;28;20043;-73
2024/03/07 05:48:35;;;;;;;51.20;23.45;;;;;;;;;;5051889;28;20033;-80
2024/03/07 05:51:02;;;;;;;38.55;17.40;;;;;;;;;;5068343;28;20029;-73
2024/03/07 05:53:28;;;;;;;48.08;22.45;;;;;;;;;;5065177;28;20398;-74
2024/03/07 05:55:54;;;;;;;50.22;24.13;;;;;;;;;;5043664;28;20025;-73
2024/03/07 05:58:20;;;;;;;49.25;23.17;;;;;;;;;;5048793;28;20566;-74
2024/03/07 06:00:49;;;;;;;51.17;21.45;;;;;;;;;;5051128;28;20463;-73
2024/03/07 06:03:19;;;;;;;42.22;19.73;;;;;;;;;;5049619;28;20021;-74
2024/03/07 06:05:48;;;;;;;39.38;20.48;;;;;;;;;;5043470;28;20029;-80
2024/03/07 06:08:16;;;;;;;50.90;22.05;;;;;;;;;;5043367;28;20045;-80
2024/03/07 06:10:42;;;;;;;43.00;20.35;;;;;;;;;;5039803;28;20017;-80
2024/03/07 06:13:09;;;;;;;49.13;21.85;;;;;;;;;;5040242;28;20029;-81
2024/03/07 06:15:36;;;;;;;53.28;22.70;;;;;;;;;;5057403;28;20022;-80
2024/03/07 06:18:02;;;;;;;44.00;22.67;;;;;;;;;;5043616;28;20431;-80
2024/03/07 06:20:28;;;;;;;46.72;22.35;;;;;;;;;;5038875;28;20025;-80
2024/03/07 06:22:54;;;;;;;45.17;22.20;;;;;;;;;;5045944;28;20050;-80
2024/03/07 06:25:33;;;;;;;51.70;21.33;;;;;;;;;;5043190;28;20103;-81
2024/03/07 06:28:08;;;;;;;45.55;21.75;;;;;;;;;;5036203;28;20065;-80
2024/03/07 06:30:34;;;;;;;47.60;22.88;;;;;;;;;;5036989;28;20025;-80
2024/03/07 06:33:00;;;;;;;45.13;21.08;;;;;;;;;;5052099;28;20084;-80
2024/03/07 06:35:26;;;;;;;49.17;23.38;;;;;;;;;;5055250;28;20036;-80
2024/03/07 06:37:52;;;;;;;46.53;22.08;;;;;;;;;;5056494;28;20025;-80
2024/03/07 06:40:22;;;;;;;43.83;21.83;;;;;;;;;;5059713;28;20021;-74
2024/03/07 06:42:48;;;;;;;46.38;23.35;;;;;;;;;;5053867;28;20386;-80
2024/03/07 06:45:14;;;;;;;48.83;21.38;;;;;;;;;;5054743;28;20053;-75
2024/03/07 06:47:41;;;;;;;44.65;22.33;;;;;;;;;;5055312;28;20041;-80
2024/03/07 06:50:09;;;;;;;50.58;24.17;;;;;;;;;;5061992;28;20049;-74
2024/03/07 06:52:35;;;;;;;44.53;21.13;;;;;;;;;;5059462;28;20024;-74
2024/03/07 06:55:07;;;;;;;45.00;21.40;;;;;;;;;;5064791;28;20021;-80
2024/03/07 06:57:34;;;;;;;58.38;23.10;;;;;;;;;;5060016;28;20029;-80
2024/03/07 07:00:00;;;;;;;45.95;22.52;;;;;;;;;;5064485;28;20562;-80
2024/03/07 07:02:27;;;;;;;44.25;22.60;;;;;;;;;;5062507;28;20069;-74
2024/03/07 07:04:53;;;;;;;46.25;22.90;;;;;;;;;;5055846;28;20021;-74
2024/03/07 07:07:22;;;;;;;48.58;22.63;;;;;;;;;;5057470;28;20025;-75
2024/03/07 07:09:51;;;;;;;48.05;22.55;;;;;;;;;;5052975;28;20136;-75
2024/03/07 07:12:19;;;;;;;46.83;23.42;;;;;;;;;;5047208;28;20497;-74
2024/03/07 07:14:45;;;;;;;55.72;25.25;;;;;;;;;;5053312;28;20090;-76
2024/03/07 07:17:13;;;;;;;50.40;24.40;;;;;;;;;;5048658;28;20029;-74
2024/03/07 07:19:39;;;;;;;50.20;22.98;;;;;;;;;;5054863;28;20017;-75
2024/03/07 07:22:06;;;;;;;46.58;21.38;;;;;;;;;;5052782;28;20073;-74
2024/03/07 07:24:34;;;;;;;48.17;24.35;;;;;;;;;;5051033;28;20044;-78
2024/03/07 07:27:00;;;;;;;50.15;22.75;;;;;;;;;;5043661;28;20128;-79
2024/03/07 07:29:26;;;;;;;46.72;23.58;;;;;;;;;;5052342;28;20046;-82
2024/03/07 07:31:52;;;;;;;46.50;22.48;;;;;;;;;;5061780;28;20120;-82
2024/03/07 07:34:19;;;;;;;37.65;19.27;;;;;;;;;;5059175;28;20021;-76
2024/03/07 07:36:45;;;;;;;45.47;21.73;;;;;;;;;;5066395;28;20074;-75
2024/03/07 07:39:16;;;;;;;51.95;24.55;;;;;;;;;;5064619;28;20024;-82
2024/03/07 07:41:43;;;;;;;50.60;21.67;;;;;;;;;;5054466;28;20032;-73
2024/03/07 07:44:09;;;;;;;52.75;23.35;;;;;;;;;;5051542;28;20048;-74
2024/03/07 07:46:35;;;;;;;46.65;24.42;;;;;;;;;;5052494;28;20017;-74
2024/03/07 07:49:02;;;;;;;53.42;25.33;;;;;;;;;;5058313;28;20067;-75
2024/03/07 07:51:28;;;;;;;56.47;23.20;;;;;;;;;;5060228;28;20026;-81
2024/03/07 07:53:56;;;;;;;53.13;24.55;;;;;;;;;;5062086;28;20386;-74
2024/03/07 07:56:23;;;;;;;49.30;23.88;;;;;;;;;;5058557;28;20502;-74
2024/03/07 07:58:49;;;;;;;55.22;24.05;;;;;;;;;;5055889;28;20393;-80
2024/03/07 08:01:16;;;;;;;49.17;23.90;;;;;;;;;;5061019;28;20017;-79
2024/03/07 08:03:43;;;;;;;49.08;23.70;;;;;;;;;;5064192;28;20028;-78
2024/03/07 08:06:09;;;;;;;48.72;21.08;;;;;;;;;;5057914;28;20043;-79
2024/03/07 08:08:35;;;;;;;51.75;24.95;;;;;;;;;;5048837;28;20037;-78
2024/03/07 08:11:01;;;;;;;53.13;24.98;;;;;;;;;;5051191;28;20025;-78
2024/03/07 08:13:27;;;;;;;55.60;23.70;;;;;;;;;;5056148;28;20024;-78
2024/03/07 08:15:53;;;;;;;52.65;25.25;;;;;;;;;;5052601;28;20513;-78
2024/03/07 08:18:20;;;;;;;57.60;25.45;;;;;;;;;;5053852;28;20423;-78
2024/03/07 08:20:46;;;;;;;46.20;22.95;;;;;;;;;;5057109;28;20020;-78
2024/03/07 08:23:15;;;;;;;60.83;26.83;;;;;;;;;;5053519;28;20043;-78
2024/03/07 08:25:42;;;;;;;59.15;27.75;;;;;;;;;;5053814;28;20481;-78
2024/03/07 08:28:08;;;;;;;53.60;23.38;;;;;;;;;;5054556;28;20127;-73
2024/03/07 08:30:35;;;;;;;58.53;25.50;;;;;;;;;;5051615;28;20055;-74
2024/03/07 08:33:05;;;;;;;51.88;25.38;;;;;;;;;;5053829;28;20021;-74
2024/03/07 08:35:31;;;;;;;53.50;25.00;;;;;;;;;;5053267;28;20017;-75
2024/03/07 08:37:57;;;;;;;61.25;25.23;;;;;;;;;;5056067;28;20035;-74
2024/03/07 08:40:25;;;;;;;50.83;25.35;;;;;;;;;;5054776;28;20020;-74
2024/03/07 08:42:51;;;;;;;48.95;22.23;;;;;;;;;;5049473;28;20090;-74
2024/03/07 08:45:19;;;;;;;47.72;19.50;;;;;;;;;;5053130;28;20029;-73
2024/03/07 08:47:45;;;;;;;50.85;22.83;;;;;;;;;;5055704;28;20049;-77
2024/03/07 08:50:13;;;;;;;46.35;23.45;;;;;;;;;;5053520;28;20028;-78
2024/03/07 08:52:43;;;;;;;63.90;27.95;;;;;;;;;;5052211;28;20032;-78
2024/03/07 08:55:14;;;;;;;52.40;24.52;;;;;;;;;;5054413;28;20045;-78
2024/03/07 08:57:40;;;;;;;49.95;24.02;;;;;;;;;;5049579;28;20025;-74
2024/03/07 09:00:11;;;;;;;42.50;20.58;;;;;;;;;;5051297;28;20040;-72
2024/03/07 09:02:39;;;;;;;55.65;26.30;;;;;;;;;;5052165;28;20074;-72
2024/03/07 09:05:06;;;;;;;63.80;26.58;;;;;;;;;;5062183;28;20021;-78
2024/03/07 09:07:32;;;;;;;56.05;24.92;;;;;;;;;;5060359;28;20028;-79
2024/03/07 09:09:58;;;;;;;45.72;23.05;;;;;;;;;;5055056;28;20087;-79
2024/03/07 09:12:25;;;;;;;63.17;25.38;;;;;;;;;;5051199;28;20037;-79
2024/03/07 09:14:56;;;;;;;45.58;23.65;;;;;;;;;;5039012;28;20036;-74
2024/03/07 09:17:22;;;;;;;54.30;24.90;;;;;;;;;;5051851;28;20025;-74
2024/03/07 09:19:48;;;;;;;46.20;22.83;;;;;;;;;;5041696;28;20081;-74
2024/03/07 09:22:14;;;;;;;54.67;25.83;;;;;;;;;;5052340;28;20467;-74
2024/03/07 09:24:40;;;;;;;48.47;23.20;;;;;;;;;;5052527;28;20025;-73
2024/03/07 09:27:06;;;;;;;63.47;27.23;;;;;;;;;;5051770;28;20063;-79
2024/03/07 09:29:32;;;;;;;52.42;24.38;;;;;;;;;;5062071;28;20407;-79
2024/03/07 09:31:58;;;;;;;56.80;25.40;;;;;;;;;;5056939;28;20479;-74
2024/03/07 09:34:25;;;;;;;51.65;24.77;;;;;;;;;;5053007;28;20106;-73
2024/03/07 09:36:51;;;;;;;49.65;25.15;;;;;;;;;;5055959;28;20459;-74
2024/03/07 09:39:21;;;;;;;48.22;23.38;;;;;;;;;;5043605;28;20037;-80
2024/03/07 09:41:47;;;;;;;49.83;23.95;;;;;;;;;;5053835;28;20104;-75
2024/03/07 09:44:22;;;;;;;51.38;24.98;;;;;;;;;;5052000;28;20041;-80
2024/03/07 09:46:48;;;;;;;45.60;22.10;;;;;;;;;;5049512;28;20674;-74
2024/03/07 09:49:15;;;;;;;51.28;25.13;;;;;;;;;;5065466;28;20494;-75
2024/03/07 09:51:42;;;;;;;48.58;25.27;;;;;;;;;;5061129;28;20545;-74
2024/03/07 09:54:09;;;;;;;48.75;22.70;;;;;;;;;;5062925;28;20511;-79
2024/03/07 09:56:37;;;;;;;47.50;23.20;;;;;;;;;;5058665;28;20021;-80
2024/03/07 09:59:07;;;;;;;45.63;23.70;;;;;;;;;;5056512;28;20032;-75
2024/03/07 10:01:35;;;;;;;48.20;23.70;;;;;;;;;;5056312;28;20013;-75
2024/03/07 10:04:14;;;;;;;46.38;21.65;;;;;;;;;;5055469;28;20017;-75
2024/03/07 10:06:45;;;;;;;48.42;24.35;;;;;;;;;;5062517;28;20055;-74
2024/03/07 10:09:14;;;;;;;54.22;25.52;;;;;;;;;;5064014;28;20028;-75
2024/03/07 10:11:43;;;;;;;46.08;22.25;;;;;;;;;;5040775;28;20029;-73
2024/03/07 10:14:10;;;;;;;45.10;21.40;;;;;;;;;;5053809;28;20079;-75
2024/03/07 10:16:36;;;;;;;41.92;23.50;;;;;;;;;;5058930;28;20024;-72
2024/03/07 10:19:05;;;;;;;41.65;22.08;;;;;;;;;;5071327;28;20074;-71
2024/03/07 10:21:34;;;;;;;46.28;22.38;;;;;;;;;;5068991;28;20021;-77
2024/03/07 10:24:06;;;;;;;39.50;20.33;;;;;;;;;;5068117;28;20025;-77
2024/03/07 10:26:34;;;;;;;56.97;25.23;;;;;;;;;;5069761;28;20021;-78
2024/03/07 10:29:00;;;;;;;47.15;25.88;;;;;;;;;;5068601;28;20040;-72
2024/03/07 10:31:33;;;;;;;53.33;25.15;;;;;;;;;;5060203;28;20024;-71
2024/03/07 10:34:00;;;;;;;44.42;22.85;;;;;;;;;;5068114;28;20025;-71
2024/03/07 10:36:26;;;;;;;42.63;23.08;;;;;;;;;;5070446;28;20028;-71
2024/03/07 10:38:55;;;;;;;46.88;21.67;;;;;;;;;;5066773;28;20029;-77
2024/03/07 10:41:22;;;;;;;50.88;23.75;;;;;;;;;;5058073;28;20075;-78
2024/03/07 10:43:51;;;;;;;43.17;22.02;;;;;;;;;;5055762;28;20111;-79
2024/03/07 10:46:19;;;;;;;46.38;22.45;;;;;;;;;;5055371;28;20445;-79
2024/03/07 10:48:49;;;;;;;40.38;20.30;;;;;;;;;;5054218;28;20064;-74
2024/03/07 10:51:25;;;;;;;57.08;24.20;;;;;;;;;;5058616;28;20025;-79
2024/03/07 10:53:51;;;;;;;41.75;20.63;;;;;;;;;;5046486;28;20021;-80
2024/03/07 10:56:20;;;;;;;48.25;21.90;;;;;;;;;;5061809;28;20706;-79
2024/03/07 10:58:46;;;;;;;47.50;22.67;;;;;;;;;;5058105;28;20025;-79
2024/03/07 11:01:13;;;;;;;44.45;22.40;;;;;;;;;;5061317;28;20107;-74
2024/03/07 11:03:42;;;;;;;55.60;24.80;;;;;;;;;;5065446;28;20084;-79
2024/03/07 11:06:11;;;;;;;57.97;27.15;;;;;;;;;;5055365;28;20047;-79
2024/03/07 11:08:37;;;;;;;51.33;23.95;;;;;;;;;;5043080;28;20044;-75
2024/03/07 11:11:04;;;;;;;52.67;22.27;;;;;;;;;;5066786;28;20074;-74
2024/03/07 11:13:31;;;;;;;42.88;20.60;;;;;;;;;;5072682;28;20021;-80
2024/03/07 11:16:00;;;;;;;51.75;23.63;;;;;;;;;;5064721;28;20027;-74
2024/03/07 11:18:29;;;;;;;63.47;28.02;;;;;;;;;;5060198;28;20035;-80
2024/03/07 11:20:57;;;;;;;73.95;29.83;;;;;;;;;;5062260;28;20079;-80
2024/03/07 11:23:30;;;;;;;60.88;26.27;;;;;;;;;;5062326;28;20021;-75
2024/03/07 11:26:07;;;;;;;45.25;22.40;;;;;;;;;;5062859;28;20104;-76
2024/03/07 11:28:34;;;;;;;51.15;21.33;;;;;;;;;;5056532;28;20111;-78
2024/03/07 11:31:09;;;;;;;37.45;19.48;;;;;;;;;;5056637;28;20485;-78
2024/03/07 11:33:43;;;;;;;56.65;24.60;;;;;;;;;;5056302;28;20368;-78
2024/03/07 11:36:13;;;;;;;50.42;22.58;;;;;;;;;;5048566;28;20100;-79
2024/03/07 11:38:45;;;;;;;47.58;23.00;;;;;;;;;;5054184;28;20037;-78
2024/03/07 11:41:13;;;;;;;39.65;20.75;;;;;;;;;;5051780;28;20501;-76
2024/03/07 11:43:39;;;;;;;42.40;20.83;;;;;;;;;;5050353;28;20098;-80
2024/03/07 11:46:11;;;;;;;39.22;19.40;;;;;;;;;;5042245;28;20047;-79
2024/03/07 11:48:41;;;;;;;44.13;20.50;;;;;;;;;;5053893;28;20041;-80
2024/03/07 11:51:10;;;;;;;39.75;20.73;;;;;;;;;;5052647;28;20348;-79
2024/03/07 11:53:37;;;;;;;39.60;21.75;;;;;;;;;;5053498;28;20091;-78
2024/03/07 11:56:09;;;;;;;42.85;19.55;;;;;;;;;;5047699;28;20063;-79
2024/03/07 11:58:40;;;;;;;65.53;27.83;;;;;;;;;;5053703;28;20029;-80
2024/03/07 12:01:10;;;;;;;38.42;19.50;;;;;;;;;;5052787;28;20051;-79
2024/03/07 12:03:37;;;;;;;50.45;22.77;;;;;;;;;;5057573;28;20036;-80
2024/03/07 12:06:03;;;;;;;35.58;17.85;;;;;;;;;;5057445;28;20079;-80
2024/03/07 12:08:29;;;;;;;38.63;19.70;;;;;;;;;;5053748;28;20120;-79
2024/03/07 12:10:56;;;;;;;36.17;18.75;;;;;;;;;;5053883;28;20021;-79
2024/03/07 12:13:24;;;;;;;37.88;17.50;;;;;;;;;;5057826;28;20521;-80
2024/03/07 12:15:55;;;;;;;36.60;16.77;;;;;;;;;;5057049;28;20017;-79
2024/03/07 12:18:22;;;;;;;28.63;15.57;;;;;;;;;;5058040;28;20021;-79
2024/03/07 12:20:54;;;;;;;39.80;17.98;;;;;;;;;;5060023;28;20012;-79
2024/03/07 12:23:20;;;;;;;35.38;18.30;;;;;;;;;;5056733;28;20104;-79
2024/03/07 12:25:47;;;;;;;29.92;16.17;;;;;;;;;;5060363;28;20012;-80
2024/03/07 12:28:20;;;;;;;27.08;14.38;;;;;;;;;;5055486;28;20494;-80
2024/03/07 12:30:46;;;;;;;;;;;;;;;;;;5061069;28;20420;-79
2024/03/07 12:33:13;;;;;;;28.50;13.52;;;;;;;;;;5056103;28;20031;-79
2024/03/07 12:35:41;;;;;;;23.30;12.75;;;;;;;;;;5059207;28;20029;-80
2024/03/07 12:38:10;;;;;;;25.17;12.88;;;;;;;;;;5057405;28;20040;-79
2024/03/07 12:40:37;;;;;;;28.08;14.65;;;;;;;;;;5054640;28;20029;-79
2024/03/07 12:43:03;;;;;;;25.77;12.30;;;;;;;;;;5056391;28;20037;-79
2024/03/07 12:45:33;;;;;;;22.77;11.25;;;;;;;;;;5057805;28;20550;-79
2024/03/07 12:48:04;;;;;;;30.85;15.18;;;;;;;;;;5051108;28;20031;-79
2024/03/07 12:50:34;;;;;;;24.08;13.55;;;;;;;;;;5045885;28;20079;-80
2024/03/07 12:53:05;;;;;;;24.02;14.80;;;;;;;;;;5058030;28;20112;-79
2024/03/07 12:55:31;;;;;;;21.88;12.50;;;;;;;;;;5045823;28;20380;-79
2024/03/07 12:57:57;;;;;;;23.15;11.73;;;;;;;;;;5051729;28;20023;-79
2024/03/07 13:00:23;;;;;;;27.30;12.55;;;;;;;;;;5063537;28;20040;-80
2024/03/07 13:02:50;;;;;;;19.02;11.02;;;;;;;;;;5050585;28;20017;-79
2024/03/07 13:05:21;;;;;;;25.45;13.98;;;;;;;;;;5059992;28;20498;-79
2024/03/07 13:07:51;;;;;;;23.92;13.25;;;;;;;;;;5053724;28;20029;-79
2024/03/07 13:10:19;;;;;;;27.77;14.20;;;;;;;;;;5060772;28;20048;-79
2024/03/07 13:12:51;;;;;;;23.05;12.70;;;;;;;;;;5058791;28;20040;-79
2024/03/07 13:15:18;;;;;;;26.35;13.52;;;;;;;;;;5062429;28;20131;-79
2024/03/07 13:17:44;;;;;;;21.25;13.52;;;;;;;;;;5057428;28;20381;-79
2024/03/07 13:20:11;;;;;;;26.35;13.85;;;;;;;;;;5060450;28;20079;-79
2024/03/07 13:22:39;;;;;;;24.67;11.88;;;;;;;;;;5060150;28;20378;-79
2024/03/07 13:25:13;;;;;;;23.40;12.30;;;;;;;;;;5058845;28;20500;-79
2024/03/07 13:27:40;;;;;;;24.25;13.75;;;;;;;;;;5053590;28;20112;-79
2024/03/07 13:30:07;;;;;;;22.50;11.23;;;;;;;;;;5047278;28;20049;-79
2024/03/07 13:32:33;;;;;;;35.70;17.08;;;;;;;;;;5048080;28;20029;-80
2024/03/07 13:35:01;;;;;;;27.77;13.38;;;;;;;;;;5049710;28;20769;-80
2024/03/07 13:37:27;;;;;;;25.77;13.02;;;;;;;;;;5057111;28;20624;-80
2024/03/07 13:39:53;;;;;;;25.13;13.43;;;;;;;;;;5050297;28;20132;-80
2024/03/07 13:42:19;;;;;;;23.70;14.05;;;;;;;;;;5045359;28;20036;-79
2024/03/07 13:44:45;;;;;;;25.10;14.10;;;;;;;;;;5043830;28;20049;-79
2024/03/07 13:47:11;;;;;;;23.98;14.02;;;;;;;;;;5051033;28;20032;-78
2024/03/07 13:49:38;;;;;;;25.15;13.73;;;;;;;;;;5052195;28;20029;-80
2024/03/07 13:52:10;;;;;;;28.83;15.20;;;;;;;;;;5058872;28;20017;-79
2024/03/07 13:54:40;;;;;;;21.15;12.38;;;;;;;;;;5052470;28;20079;-80
2024/03/07 13:57:27;;;;;;;22.73;11.63;;;;;;;;;;5052856;28;20024;-79
2024/03/07 13:59:56;;;;;;;25.67;13.63;;;;;;;;;;5050934;28;20044;-79
2024/03/07 14:02:49;;;;;;;24.80;13.02;;;;;;;;;;5047998;28;20021;-79
2024/03/07 14:05:45;;;;;;;21.83;11.20;;;;;;;;;;5045828;28;20025;-79
2024/03/07 14:08:23;;;;;;;26.55;13.00;;;;;;;;;;5041638;28;20049;-80
2024/03/07 14:11:07;;;;;;;23.63;13.63;;;;;;;;;;5047724;28;20033;-79
2024/03/07 14:14:00;;;;;;;24.77;12.65;;;;;;;;;;5051635;28;20024;-79
2024/03/07 14:16:49;;;;;;;23.63;12.13;;;;;;;;;;5053828;28;20390;-79
2024/03/07 14:19:34;;;;;;;22.50;12.55;;;;;;;;;;5041645;28;20017;-79
2024/03/07 14:22:01;;;;;;;22.17;10.70;;;;;;;;;;5051197;28;20498;-79
2024/03/07 14:24:36;;;;;;;21.63;12.82;;;;;;;;;;5052714;28;20021;-79